sensor_id;sensor_type;location;lat;lon;timestamp;P1;durP1;ratioP1;P2;durP2;ratioP2
55489;SDS011;44029;52.956;4.772;2023-09-19T00:00:22;5.85;;;3.75;;
55489;SDS011;44029;52.956;4.772;2023-09-19T00:02:58;12.73;;;4.15;;
55489;SDS011;44029;52.956;4.772;2023-09-19T00:05:26;4.30;;;3.45;;
55489;SDS011;44029;52.956;4.772;2023-09-19T00:07:54;9.23;;;3.85;;
55489;SDS011;44029;52.956;4.772;2023-09-19T00:10:23;5.60;;;3.72;;
55489;SDS011;44029;52.956;4.772;2023-09-19T00:12:54;11.43;;;3.95;;
55489;SDS011;44029;52.956;4.772;2023-09-19T00:17:51;8.40;;;4.10;;
55489;SDS011;44029;52.956;4.772;2023-09-19T00:20:17;13.43;;;3.92;;
55489;SDS011;44029;52.956;4.772;2023-09-19T00:22:43;9.70;;;3.67;;
55489;SDS011;44029;52.956;4.772;2023-09-19T00:25:09;10.88;;;4.28;;
55489;SDS011;44029;52.956;4.772;2023-09-19T00:27:37;7.70;;;3.50;;
55489;SDS011;44029;52.956;4.772;2023-09-19T00:30:06;3.55;;;3.25;;
55489;SDS011;44029;52.956;4.772;2023-09-19T00:32:33;5.63;;;3.70;;
55489;SDS011;44029;52.956;4.772;2023-09-19T00:34:59;11.63;;;4.43;;
55489;SDS011;44029;52.956;4.772;2023-09-19T00:37:25;7.25;;;3.70;;
55489;SDS011;44029;52.956;4.772;2023-09-19T00:39:50;5.78;;;3.47;;
55489;SDS011;44029;52.956;4.772;2023-09-19T00:42:21;10.32;;;3.63;;
55489;SDS011;44029;52.956;4.772;2023-09-19T00:44:47;6.55;;;5.35;;
55489;SDS011;44029;52.956;4.772;2023-09-19T00:47:16;5.40;;;3.35;;
55489;SDS011;44029;52.956;4.772;2023-09-19T00:49:42;8.90;;;3.25;;
55489;SDS011;44029;52.956;4.772;2023-09-19T00:52:08;5.18;;;3.53;;
55489;SDS011;44029;52.956;4.772;2023-09-19T00:54:36;7.70;;;3.60;;
55489;SDS011;44029;52.956;4.772;2023-09-19T00:57:02;4.55;;;4.10;;
55489;SDS011;44029;52.956;4.772;2023-09-19T00:59:28;6.22;;;3.60;;
55489;SDS011;44029;52.956;4.772;2023-09-19T01:01:55;8.48;;;3.67;;
55489;SDS011;44029;52.956;4.772;2023-09-19T01:04:22;6.60;;;3.65;;
55489;SDS011;44029;52.956;4.772;2023-09-19T01:06:48;4.70;;;3.25;;
55489;SDS011;44029;52.956;4.772;2023-09-19T01:09:18;5.40;;;3.05;;
55489;SDS011;44029;52.956;4.772;2023-09-19T01:11:46;13.32;;;4.18;;
55489;SDS011;44029;52.956;4.772;2023-09-19T01:16:56;8.07;;;3.13;;
55489;SDS011;44029;52.956;4.772;2023-09-19T01:22:42;7.82;;;3.88;;
55489;SDS011;44029;52.956;4.772;2023-09-19T01:30:45;7.38;;;3.83;;
55489;SDS011;44029;52.956;4.772;2023-09-19T01:33:12;8.90;;;4.15;;
55489;SDS011;44029;52.956;4.772;2023-09-19T01:35:38;9.27;;;3.80;;
55489;SDS011;44029;52.956;4.772;2023-09-19T01:38:04;8.75;;;3.95;;
55489;SDS011;44029;52.956;4.772;2023-09-19T01:40:43;3.95;;;3.70;;
55489;SDS011;44029;52.956;4.772;2023-09-19T01:43:20;8.60;;;4.63;;
55489;SDS011;44029;52.956;4.772;2023-09-19T01:51:18;4.40;;;3.58;;
55489;SDS011;44029;52.956;4.772;2023-09-19T01:53:51;7.75;;;3.80;;
55489;SDS011;44029;52.956;4.772;2023-09-19T01:56:28;7.30;;;3.95;;
55489;SDS011;44029;52.956;4.772;2023-09-19T01:58:59;7.20;;;3.70;;
55489;SDS011;44029;52.956;4.772;2023-09-19T02:01:32;13.98;;;5.28;;
55489;SDS011;44029;52.956;4.772;2023-09-19T02:03:59;10.15;;;3.78;;
55489;SDS011;44029;52.956;4.772;2023-09-19T02:06:24;9.95;;;4.07;;
55489;SDS011;44029;52.956;4.772;2023-09-19T02:08:50;10.82;;;3.97;;
55489;SDS011;44029;52.956;4.772;2023-09-19T02:11:15;8.43;;;3.25;;
55489;SDS011;44029;52.956;4.772;2023-09-19T02:13:41;7.50;;;3.30;;
55489;SDS011;44029;52.956;4.772;2023-09-19T02:16:06;4.93;;;3.70;;
55489;SDS011;44029;52.956;4.772;2023-09-19T02:18:34;10.30;;;3.40;;
55489;SDS011;44029;52.956;4.772;2023-09-19T02:21:04;6.40;;;3.35;;
55489;SDS011;44029;52.956;4.772;2023-09-19T02:23:31;6.07;;;3.30;;
55489;SDS011;44029;52.956;4.772;2023-09-19T02:25:58;7.22;;;2.97;;
55489;SDS011;44029;52.956;4.772;2023-09-19T02:28:25;14.63;;;3.90;;
55489;SDS011;44029;52.956;4.772;2023-09-19T02:30:55;5.50;;;3.08;;
55489;SDS011;44029;52.956;4.772;2023-09-19T02:33:21;13.13;;;3.80;;
55489;SDS011;44029;52.956;4.772;2023-09-19T02:35:46;11.65;;;3.33;;
55489;SDS011;44029;52.956;4.772;2023-09-19T02:38:11;10.88;;;4.32;;
55489;SDS011;44029;52.956;4.772;2023-09-19T02:40:37;7.22;;;3.95;;
55489;SDS011;44029;52.956;4.772;2023-09-19T02:43:03;11.27;;;4.30;;
55489;SDS011;44029;52.956;4.772;2023-09-19T02:45:28;6.75;;;3.75;;
55489;SDS011;44029;52.956;4.772;2023-09-19T02:47:55;21.30;;;4.32;;
55489;SDS011;44029;52.956;4.772;2023-09-19T02:50:20;9.60;;;3.70;;
55489;SDS011;44029;52.956;4.772;2023-09-19T02:52:46;9.35;;;3.67;;
55489;SDS011;44029;52.956;4.772;2023-09-19T02:55:15;3.50;;;3.20;;
55489;SDS011;44029;52.956;4.772;2023-09-19T02:57:47;8.40;;;4.00;;
55489;SDS011;44029;52.956;4.772;2023-09-19T03:00:18;15.55;;;3.85;;
55489;SDS011;44029;52.956;4.772;2023-09-19T03:02:47;5.50;;;3.20;;
55489;SDS011;44029;52.956;4.772;2023-09-19T03:05:13;13.50;;;4.30;;
55489;SDS011;44029;52.956;4.772;2023-09-19T03:07:39;5.05;;;3.60;;
55489;SDS011;44029;52.956;4.772;2023-09-19T03:10:05;9.20;;;3.63;;
55489;SDS011;44029;52.956;4.772;2023-09-19T03:12:32;13.90;;;3.40;;
55489;SDS011;44029;52.956;4.772;2023-09-19T03:14:58;8.75;;;3.55;;
55489;SDS011;44029;52.956;4.772;2023-09-19T03:17:24;6.93;;;3.50;;
55489;SDS011;44029;52.956;4.772;2023-09-19T03:19:50;10.73;;;3.83;;
55489;SDS011;44029;52.956;4.772;2023-09-19T03:22:15;17.75;;;3.35;;
55489;SDS011;44029;52.956;4.772;2023-09-19T03:24:41;6.75;;;3.30;;
55489;SDS011;44029;52.956;4.772;2023-09-19T03:27:08;8.63;;;3.55;;
55489;SDS011;44029;52.956;4.772;2023-09-19T03:29:35;8.27;;;3.58;;
55489;SDS011;44029;52.956;4.772;2023-09-19T03:32:00;6.00;;;3.00;;
55489;SDS011;44029;52.956;4.772;2023-09-19T03:34:26;7.80;;;3.55;;
55489;SDS011;44029;52.956;4.772;2023-09-19T03:36:52;10.18;;;3.40;;
55489;SDS011;44029;52.956;4.772;2023-09-19T03:39:17;12.45;;;2.75;;
55489;SDS011;44029;52.956;4.772;2023-09-19T03:41:42;5.00;;;3.80;;
55489;SDS011;44029;52.956;4.772;2023-09-19T03:44:08;5.75;;;4.00;;
55489;SDS011;44029;52.956;4.772;2023-09-19T03:46:33;9.88;;;3.65;;
55489;SDS011;44029;52.956;4.772;2023-09-19T03:49:00;5.75;;;3.28;;
55489;SDS011;44029;52.956;4.772;2023-09-19T03:51:25;9.10;;;3.85;;
55489;SDS011;44029;52.956;4.772;2023-09-19T03:53:51;10.45;;;4.18;;
55489;SDS011;44029;52.956;4.772;2023-09-19T03:56:16;7.97;;;4.03;;
55489;SDS011;44029;52.956;4.772;2023-09-19T03:58:42;11.50;;;4.15;;
55489;SDS011;44029;52.956;4.772;2023-09-19T04:01:07;8.18;;;3.13;;
55489;SDS011;44029;52.956;4.772;2023-09-19T04:03:35;15.45;;;3.60;;
55489;SDS011;44029;52.956;4.772;2023-09-19T04:06:12;3.97;;;3.67;;
55489;SDS011;44029;52.956;4.772;2023-09-19T04:08:38;5.22;;;2.72;;
55489;SDS011;44029;52.956;4.772;2023-09-19T04:11:03;6.93;;;3.08;;
55489;SDS011;44029;52.956;4.772;2023-09-19T04:13:28;8.00;;;3.42;;
55489;SDS011;44029;52.956;4.772;2023-09-19T04:15:54;8.13;;;3.50;;
55489;SDS011;44029;52.956;4.772;2023-09-19T04:18:20;5.93;;;3.10;;
55489;SDS011;44029;52.956;4.772;2023-09-19T04:20:49;10.50;;;4.15;;
55489;SDS011;44029;52.956;4.772;2023-09-19T04:23:15;9.27;;;3.33;;
55489;SDS011;44029;52.956;4.772;2023-09-19T04:25:40;10.73;;;3.63;;
55489;SDS011;44029;52.956;4.772;2023-09-19T04:28:06;9.40;;;3.33;;
55489;SDS011;44029;52.956;4.772;2023-09-19T04:30:31;9.45;;;3.03;;
55489;SDS011;44029;52.956;4.772;2023-09-19T04:32:56;11.98;;;3.63;;
55489;SDS011;44029;52.956;4.772;2023-09-19T04:35:22;4.93;;;2.55;;
55489;SDS011;44029;52.956;4.772;2023-09-19T04:37:47;8.13;;;2.00;;
55489;SDS011;44029;52.956;4.772;2023-09-19T04:40:13;5.55;;;1.88;;
55489;SDS011;44029;52.956;4.772;2023-09-19T04:42:45;5.57;;;3.13;;
55489;SDS011;44029;52.956;4.772;2023-09-19T04:45:27;4.47;;;3.28;;
55489;SDS011;44029;52.956;4.772;2023-09-19T04:47:53;13.68;;;3.78;;
55489;SDS011;44029;52.956;4.772;2023-09-19T04:50:19;5.53;;;2.45;;
55489;SDS011;44029;52.956;4.772;2023-09-19T04:52:50;3.08;;;1.77;;
55489;SDS011;44029;52.956;4.772;2023-09-19T04:55:16;8.93;;;3.33;;
55489;SDS011;44029;52.956;4.772;2023-09-19T04:57:48;8.68;;;3.53;;
55489;SDS011;44029;52.956;4.772;2023-09-19T05:00:15;12.77;;;3.00;;
55489;SDS011;44029;52.956;4.772;2023-09-19T05:02:44;5.65;;;2.80;;
55489;SDS011;44029;52.956;4.772;2023-09-19T05:05:11;13.55;;;3.53;;
55489;SDS011;44029;52.956;4.772;2023-09-19T05:07:37;12.80;;;3.97;;
55489;SDS011;44029;52.956;4.772;2023-09-19T05:10:04;15.27;;;3.80;;
55489;SDS011;44029;52.956;4.772;2023-09-19T05:12:36;12.68;;;5.03;;
55489;SDS011;44029;52.956;4.772;2023-09-19T05:15:02;6.90;;;3.22;;
55489;SDS011;44029;52.956;4.772;2023-09-19T05:17:28;6.45;;;2.00;;
55489;SDS011;44029;52.956;4.772;2023-09-19T05:19:53;5.65;;;2.92;;
55489;SDS011;44029;52.956;4.772;2023-09-19T05:22:19;11.93;;;3.33;;
55489;SDS011;44029;52.956;4.772;2023-09-19T05:24:44;8.77;;;2.33;;
55489;SDS011;44029;52.956;4.772;2023-09-19T05:27:13;10.38;;;3.22;;
55489;SDS011;44029;52.956;4.772;2023-09-19T05:29:42;10.38;;;3.42;;
55489;SDS011;44029;52.956;4.772;2023-09-19T05:32:08;5.72;;;3.25;;
55489;SDS011;44029;52.956;4.772;2023-09-19T05:34:34;7.80;;;3.35;;
55489;SDS011;44029;52.956;4.772;2023-09-19T05:36:59;6.70;;;2.60;;
55489;SDS011;44029;52.956;4.772;2023-09-19T05:39:24;6.50;;;3.17;;
55489;SDS011;44029;52.956;4.772;2023-09-19T05:41:50;7.85;;;3.33;;
55489;SDS011;44029;52.956;4.772;2023-09-19T05:44:15;12.73;;;3.72;;
55489;SDS011;44029;52.956;4.772;2023-09-19T05:46:40;6.03;;;3.50;;
55489;SDS011;44029;52.956;4.772;2023-09-19T05:49:05;3.40;;;2.55;;
55489;SDS011;44029;52.956;4.772;2023-09-19T05:51:31;7.40;;;3.28;;
55489;SDS011;44029;52.956;4.772;2023-09-19T05:53:56;5.40;;;2.70;;
55489;SDS011;44029;52.956;4.772;2023-09-19T05:56:22;5.65;;;3.10;;
55489;SDS011;44029;52.956;4.772;2023-09-19T05:58:47;10.20;;;3.28;;
55489;SDS011;44029;52.956;4.772;2023-09-19T06:01:14;8.90;;;3.25;;
55489;SDS011;44029;52.956;4.772;2023-09-19T06:03:40;6.43;;;3.03;;
55489;SDS011;44029;52.956;4.772;2023-09-19T06:06:05;7.28;;;2.72;;
55489;SDS011;44029;52.956;4.772;2023-09-19T06:08:34;8.27;;;2.80;;
55489;SDS011;44029;52.956;4.772;2023-09-19T06:11:00;6.13;;;3.00;;
55489;SDS011;44029;52.956;4.772;2023-09-19T06:13:27;11.05;;;3.17;;
55489;SDS011;44029;52.956;4.772;2023-09-19T06:15:54;7.93;;;3.70;;
55489;SDS011;44029;52.956;4.772;2023-09-19T06:18:23;12.98;;;3.58;;
55489;SDS011;44029;52.956;4.772;2023-09-19T06:20:51;8.10;;;3.70;;
55489;SDS011;44029;52.956;4.772;2023-09-19T06:23:16;13.75;;;2.78;;
55489;SDS011;44029;52.956;4.772;2023-09-19T06:25:42;4.70;;;3.55;;
55489;SDS011;44029;52.956;4.772;2023-09-19T06:28:09;8.63;;;3.60;;
55489;SDS011;44029;52.956;4.772;2023-09-19T06:30:37;9.70;;;3.97;;
55489;SDS011;44029;52.956;4.772;2023-09-19T06:33:05;8.75;;;4.07;;
55489;SDS011;44029;52.956;4.772;2023-09-19T06:35:32;7.15;;;3.10;;
55489;SDS011;44029;52.956;4.772;2023-09-19T06:37:58;7.57;;;4.20;;
55489;SDS011;44029;52.956;4.772;2023-09-19T06:40:23;5.57;;;3.10;;
55489;SDS011;44029;52.956;4.772;2023-09-19T06:42:52;4.38;;;3.05;;
55489;SDS011;44029;52.956;4.772;2023-09-19T06:45:19;6.30;;;3.67;;
55489;SDS011;44029;52.956;4.772;2023-09-19T06:47:46;8.18;;;3.88;;
55489;SDS011;44029;52.956;4.772;2023-09-19T06:50:18;9.63;;;3.60;;
55489;SDS011;44029;52.956;4.772;2023-09-19T06:52:47;8.00;;;3.55;;
55489;SDS011;44029;52.956;4.772;2023-09-19T06:55:15;8.90;;;3.92;;
55489;SDS011;44029;52.956;4.772;2023-09-19T06:57:41;14.02;;;3.60;;
55489;SDS011;44029;52.956;4.772;2023-09-19T07:00:08;14.32;;;4.28;;
55489;SDS011;44029;52.956;4.772;2023-09-19T07:02:41;8.48;;;3.63;;
55489;SDS011;44029;52.956;4.772;2023-09-19T07:05:06;10.25;;;2.22;;
55489;SDS011;44029;52.956;4.772;2023-09-19T07:07:32;8.48;;;3.72;;
55489;SDS011;44029;52.956;4.772;2023-09-19T07:10:00;8.18;;;2.70;;
55489;SDS011;44029;52.956;4.772;2023-09-19T07:12:26;10.18;;;3.70;;
55489;SDS011;44029;52.956;4.772;2023-09-19T07:14:51;15.70;;;4.28;;
55489;SDS011;44029;52.956;4.772;2023-09-19T07:17:16;7.75;;;3.72;;
55489;SDS011;44029;52.956;4.772;2023-09-19T07:19:44;5.03;;;3.28;;
55489;SDS011;44029;52.956;4.772;2023-09-19T07:22:10;6.93;;;3.75;;
55489;SDS011;44029;52.956;4.772;2023-09-19T07:24:35;10.63;;;3.88;;
55489;SDS011;44029;52.956;4.772;2023-09-19T07:27:01;15.13;;;4.32;;
55489;SDS011;44029;52.956;4.772;2023-09-19T07:29:27;13.55;;;3.95;;
55489;SDS011;44029;52.956;4.772;2023-09-19T07:31:53;11.45;;;3.58;;
55489;SDS011;44029;52.956;4.772;2023-09-19T07:34:19;9.20;;;4.30;;
55489;SDS011;44029;52.956;4.772;2023-09-19T07:36:46;6.65;;;4.47;;
55489;SDS011;44029;52.956;4.772;2023-09-19T07:39:12;14.73;;;3.50;;
55489;SDS011;44029;52.956;4.772;2023-09-19T07:41:37;6.35;;;4.63;;
55489;SDS011;44029;52.956;4.772;2023-09-19T07:44:03;7.63;;;4.07;;
55489;SDS011;44029;52.956;4.772;2023-09-19T07:46:28;8.65;;;3.88;;
55489;SDS011;44029;52.956;4.772;2023-09-19T07:48:56;7.25;;;4.05;;
55489;SDS011;44029;52.956;4.772;2023-09-19T07:51:22;17.40;;;4.25;;
55489;SDS011;44029;52.956;4.772;2023-09-19T07:53:47;12.68;;;3.50;;
55489;SDS011;44029;52.956;4.772;2023-09-19T07:56:13;10.65;;;4.13;;
55489;SDS011;44029;52.956;4.772;2023-09-19T07:58:39;11.75;;;4.00;;
55489;SDS011;44029;52.956;4.772;2023-09-19T08:01:08;11.02;;;4.60;;
55489;SDS011;44029;52.956;4.772;2023-09-19T08:03:35;7.75;;;4.22;;
55489;SDS011;44029;52.956;4.772;2023-09-19T08:06:05;18.15;;;6.10;;
55489;SDS011;44029;52.956;4.772;2023-09-19T08:08:31;19.70;;;4.45;;
55489;SDS011;44029;52.956;4.772;2023-09-19T08:10:57;11.80;;;4.55;;
55489;SDS011;44029;52.956;4.772;2023-09-19T08:13:23;8.88;;;4.70;;
55489;SDS011;44029;52.956;4.772;2023-09-19T08:15:49;12.80;;;5.00;;
55489;SDS011;44029;52.956;4.772;2023-09-19T08:18:16;12.63;;;5.07;;
55489;SDS011;44029;52.956;4.772;2023-09-19T08:20:41;10.20;;;4.05;;
55489;SDS011;44029;52.956;4.772;2023-09-19T08:23:07;11.07;;;3.05;;
55489;SDS011;44029;52.956;4.772;2023-09-19T08:25:33;12.43;;;4.53;;
55489;SDS011;44029;52.956;4.772;2023-09-19T08:27:59;14.30;;;4.82;;
55489;SDS011;44029;52.956;4.772;2023-09-19T08:30:27;6.50;;;4.75;;
55489;SDS011;44029;52.956;4.772;2023-09-19T08:32:58;8.13;;;4.90;;
55489;SDS011;44029;52.956;4.772;2023-09-19T08:35:24;8.82;;;4.28;;
55489;SDS011;44029;52.956;4.772;2023-09-19T08:37:50;12.13;;;4.93;;
55489;SDS011;44029;52.956;4.772;2023-09-19T08:40:16;6.82;;;3.10;;
55489;SDS011;44029;52.956;4.772;2023-09-19T08:42:52;15.10;;;5.40;;
55489;SDS011;44029;52.956;4.772;2023-09-19T08:45:20;10.43;;;4.85;;
55489;SDS011;44029;52.956;4.772;2023-09-19T08:48:30;15.23;;;5.30;;
55489;SDS011;44029;52.956;4.772;2023-09-19T08:50:59;19.08;;;5.85;;
55489;SDS011;44029;52.956;4.772;2023-09-19T08:56:11;8.95;;;4.75;;
55489;SDS011;44029;52.956;4.772;2023-09-19T08:58:50;24.23;;;5.45;;
55489;SDS011;44029;52.956;4.772;2023-09-19T09:01:19;15.00;;;4.97;;
55489;SDS011;44029;52.956;4.772;2023-09-19T09:03:51;12.13;;;4.90;;
55489;SDS011;44029;52.956;4.772;2023-09-19T09:06:17;9.75;;;4.43;;
55489;SDS011;44029;52.956;4.772;2023-09-19T09:08:43;13.35;;;4.82;;
55489;SDS011;44029;52.956;4.772;2023-09-19T09:11:09;12.07;;;5.63;;
55489;SDS011;44029;52.956;4.772;2023-09-19T09:13:36;9.77;;;4.50;;
55489;SDS011;44029;52.956;4.772;2023-09-19T09:16:02;18.75;;;4.65;;
55489;SDS011;44029;52.956;4.772;2023-09-19T09:18:28;12.15;;;4.10;;
55489;SDS011;44029;52.956;4.772;2023-09-19T09:20:56;12.60;;;5.07;;
55489;SDS011;44029;52.956;4.772;2023-09-19T09:23:22;19.00;;;3.95;;
55489;SDS011;44029;52.956;4.772;2023-09-19T09:25:54;8.85;;;4.15;;
55489;SDS011;44029;52.956;4.772;2023-09-19T09:28:22;13.85;;;4.68;;
55489;SDS011;44029;52.956;4.772;2023-09-19T09:30:49;10.90;;;4.70;;
55489;SDS011;44029;52.956;4.772;2023-09-19T09:33:15;15.25;;;4.35;;
55489;SDS011;44029;52.956;4.772;2023-09-19T09:38:18;6.97;;;3.70;;
55489;SDS011;44029;52.956;4.772;2023-09-19T09:40:48;10.43;;;5.30;;
55489;SDS011;44029;52.956;4.772;2023-09-19T09:43:33;14.32;;;4.82;;
55489;SDS011;44029;52.956;4.772;2023-09-19T09:46:11;14.85;;;4.30;;
55489;SDS011;44029;52.956;4.772;2023-09-19T09:48:59;11.68;;;4.07;;
55489;SDS011;44029;52.956;4.772;2023-09-19T09:51:58;12.45;;;4.63;;
55489;SDS011;44029;52.956;4.772;2023-09-19T09:54:32;13.40;;;4.85;;
55489;SDS011;44029;52.956;4.772;2023-09-19T09:57:02;15.13;;;4.40;;
55489;SDS011;44029;52.956;4.772;2023-09-19T09:59:55;20.23;;;4.82;;
55489;SDS011;44029;52.956;4.772;2023-09-19T10:02:40;13.85;;;4.10;;
55489;SDS011;44029;52.956;4.772;2023-09-19T10:05:13;18.10;;;4.57;;
55489;SDS011;44029;52.956;4.772;2023-09-19T10:07:54;13.68;;;3.95;;
55489;SDS011;44029;52.956;4.772;2023-09-19T10:10:34;15.98;;;4.07;;
55489;SDS011;44029;52.956;4.772;2023-09-19T10:13:18;14.30;;;4.10;;
55489;SDS011;44029;52.956;4.772;2023-09-19T10:15:48;13.70;;;4.68;;
55489;SDS011;44029;52.956;4.772;2023-09-19T10:18:16;18.83;;;4.00;;
55489;SDS011;44029;52.956;4.772;2023-09-19T10:20:45;15.20;;;4.57;;
55489;SDS011;44029;52.956;4.772;2023-09-19T10:23:13;17.60;;;4.40;;
55489;SDS011;44029;52.956;4.772;2023-09-19T10:25:40;8.70;;;3.50;;
55489;SDS011;44029;52.956;4.772;2023-09-19T10:28:07;10.75;;;3.97;;
55489;SDS011;44029;52.956;4.772;2023-09-19T10:30:38;14.70;;;4.97;;
55489;SDS011;44029;52.956;4.772;2023-09-19T10:33:08;11.93;;;4.03;;
55489;SDS011;44029;52.956;4.772;2023-09-19T10:35:34;21.10;;;4.15;;
55489;SDS011;44029;52.956;4.772;2023-09-19T10:38:05;19.48;;;4.57;;
55489;SDS011;44029;52.956;4.772;2023-09-19T10:40:32;29.35;;;4.40;;
55489;SDS011;44029;52.956;4.772;2023-09-19T10:43:00;23.65;;;4.13;;
55489;SDS011;44029;52.956;4.772;2023-09-19T10:45:29;15.32;;;3.83;;
55489;SDS011;44029;52.956;4.772;2023-09-19T10:47:56;14.95;;;3.47;;
55489;SDS011;44029;52.956;4.772;2023-09-19T10:50:22;13.82;;;3.60;;
55489;SDS011;44029;52.956;4.772;2023-09-19T10:52:52;17.75;;;3.53;;
55489;SDS011;44029;52.956;4.772;2023-09-19T10:55:23;17.60;;;3.85;;
55489;SDS011;44029;52.956;4.772;2023-09-19T10:57:51;14.35;;;3.83;;
55489;SDS011;44029;52.956;4.772;2023-09-19T11:00:17;16.48;;;3.45;;
55489;SDS011;44029;52.956;4.772;2023-09-19T11:05:36;13.73;;;4.40;;
55489;SDS011;44029;52.956;4.772;2023-09-19T11:08:06;10.38;;;3.50;;
55489;SDS011;44029;52.956;4.772;2023-09-19T11:13:23;15.45;;;3.42;;
55489;SDS011;44029;52.956;4.772;2023-09-19T11:27:09;21.25;;;3.53;;
55489;SDS011;44029;52.956;4.772;2023-09-19T11:30:25;11.10;;;3.45;;
55489;SDS011;44029;52.956;4.772;2023-09-19T11:46:16;11.50;;;3.60;;
55489;SDS011;44029;52.956;4.772;2023-09-19T11:48:47;14.77;;;3.10;;
55489;SDS011;44029;52.956;4.772;2023-09-19T11:51:14;16.98;;;4.53;;
55489;SDS011;44029;52.956;4.772;2023-09-19T11:53:47;18.75;;;3.83;;
55489;SDS011;44029;52.956;4.772;2023-09-19T11:56:15;20.05;;;4.28;;
55489;SDS011;44029;52.956;4.772;2023-09-19T11:58:45;17.55;;;3.45;;
55489;SDS011;44029;52.956;4.772;2023-09-19T12:01:14;18.52;;;3.95;;
55489;SDS011;44029;52.956;4.772;2023-09-19T12:03:45;29.15;;;3.95;;
55489;SDS011;44029;52.956;4.772;2023-09-19T12:06:13;20.60;;;4.28;;
55489;SDS011;44029;52.956;4.772;2023-09-19T12:08:41;15.35;;;4.18;;
55489;SDS011;44029;52.956;4.772;2023-09-19T12:11:11;14.52;;;3.83;;
55489;SDS011;44029;52.956;4.772;2023-09-19T12:13:41;22.75;;;5.30;;
55489;SDS011;44029;52.956;4.772;2023-09-19T12:16:11;20.73;;;4.65;;
55489;SDS011;44029;52.956;4.772;2023-09-19T12:18:46;22.10;;;4.40;;
55489;SDS011;44029;52.956;4.772;2023-09-19T12:21:28;27.90;;;4.93;;
55489;SDS011;44029;52.956;4.772;2023-09-19T12:26:38;10.63;;;3.83;;
55489;SDS011;44029;52.956;4.772;2023-09-19T12:29:09;21.27;;;5.63;;
55489;SDS011;44029;52.956;4.772;2023-09-19T12:34:22;16.65;;;4.88;;
55489;SDS011;44029;52.956;4.772;2023-09-19T12:37:02;14.82;;;4.38;;
55489;SDS011;44029;52.956;4.772;2023-09-19T12:39:30;31.15;;;5.55;;
55489;SDS011;44029;52.956;4.772;2023-09-19T12:41:56;28.98;;;6.38;;
55489;SDS011;44029;52.956;4.772;2023-09-19T12:44:21;27.20;;;4.90;;
55489;SDS011;44029;52.956;4.772;2023-09-19T12:46:49;19.27;;;4.63;;
55489;SDS011;44029;52.956;4.772;2023-09-19T12:49:18;30.65;;;5.50;;
55489;SDS011;44029;52.956;4.772;2023-09-19T12:51:45;29.17;;;5.10;;
55489;SDS011;44029;52.956;4.772;2023-09-19T12:54:12;23.98;;;5.47;;
55489;SDS011;44029;52.956;4.772;2023-09-19T12:56:40;22.40;;;5.10;;
55489;SDS011;44029;52.956;4.772;2023-09-19T12:59:12;23.08;;;5.45;;
55489;SDS011;44029;52.956;4.772;2023-09-19T13:01:42;23.92;;;5.60;;
55489;SDS011;44029;52.956;4.772;2023-09-19T13:04:19;23.10;;;5.57;;
55489;SDS011;44029;52.956;4.772;2023-09-19T13:06:49;21.92;;;5.43;;
55489;SDS011;44029;52.956;4.772;2023-09-19T13:09:15;23.52;;;5.15;;
55489;SDS011;44029;52.956;4.772;2023-09-19T13:11:42;21.83;;;5.30;;
55489;SDS011;44029;52.956;4.772;2023-09-19T13:14:14;18.08;;;4.47;;
55489;SDS011;44029;52.956;4.772;2023-09-19T13:16:58;24.45;;;6.95;;
55489;SDS011;44029;52.956;4.772;2023-09-19T13:25:16;17.83;;;5.28;;
55489;SDS011;44029;52.956;4.772;2023-09-19T13:27:46;14.98;;;5.10;;
55489;SDS011;44029;52.956;4.772;2023-09-19T13:30:17;17.85;;;5.00;;
55489;SDS011;44029;52.956;4.772;2023-09-19T13:32:43;14.90;;;5.32;;
55489;SDS011;44029;52.956;4.772;2023-09-19T13:35:09;21.10;;;5.78;;
55489;SDS011;44029;52.956;4.772;2023-09-19T13:37:35;21.45;;;7.20;;
55489;SDS011;44029;52.956;4.772;2023-09-19T13:40:03;31.55;;;5.78;;
55489;SDS011;44029;52.956;4.772;2023-09-19T13:42:30;23.42;;;5.38;;
55489;SDS011;44029;52.956;4.772;2023-09-19T13:44:56;8.98;;;4.30;;
55489;SDS011;44029;52.956;4.772;2023-09-19T13:47:22;19.10;;;4.43;;
55489;SDS011;44029;52.956;4.772;2023-09-19T13:49:49;24.17;;;5.38;;
55489;SDS011;44029;52.956;4.772;2023-09-19T13:52:18;21.65;;;5.57;;
55489;SDS011;44029;52.956;4.772;2023-09-19T13:54:44;21.45;;;5.72;;
55489;SDS011;44029;52.956;4.772;2023-09-19T13:57:10;20.88;;;5.53;;
55489;SDS011;44029;52.956;4.772;2023-09-19T13:59:35;27.10;;;5.43;;
55489;SDS011;44029;52.956;4.772;2023-09-19T14:02:01;13.80;;;5.38;;
55489;SDS011;44029;52.956;4.772;2023-09-19T14:04:30;23.50;;;6.35;;
55489;SDS011;44029;52.956;4.772;2023-09-19T14:06:56;23.50;;;5.53;;
55489;SDS011;44029;52.956;4.772;2023-09-19T14:09:22;27.85;;;5.25;;
55489;SDS011;44029;52.956;4.772;2023-09-19T14:11:49;32.30;;;6.65;;
55489;SDS011;44029;52.956;4.772;2023-09-19T14:14:17;25.90;;;5.25;;
55489;SDS011;44029;52.956;4.772;2023-09-19T14:16:43;39.67;;;6.45;;
55489;SDS011;44029;52.956;4.772;2023-09-19T14:19:09;27.83;;;6.65;;
55489;SDS011;44029;52.956;4.772;2023-09-19T14:21:35;19.33;;;5.40;;
55489;SDS011;44029;52.956;4.772;2023-09-19T14:24:01;20.75;;;5.13;;
55489;SDS011;44029;52.956;4.772;2023-09-19T14:26:27;21.90;;;5.40;;
55489;SDS011;44029;52.956;4.772;2023-09-19T14:28:52;23.02;;;5.85;;
55489;SDS011;44029;52.956;4.772;2023-09-19T14:31:18;22.20;;;5.47;;
55489;SDS011;44029;52.956;4.772;2023-09-19T14:33:43;23.63;;;5.68;;
55489;SDS011;44029;52.956;4.772;2023-09-19T14:36:09;31.00;;;6.30;;
55489;SDS011;44029;52.956;4.772;2023-09-19T14:38:36;29.30;;;6.75;;
55489;SDS011;44029;52.956;4.772;2023-09-19T14:41:03;23.42;;;5.13;;
55489;SDS011;44029;52.956;4.772;2023-09-19T14:43:30;30.48;;;6.50;;
55489;SDS011;44029;52.956;4.772;2023-09-19T14:45:57;28.27;;;5.57;;
55489;SDS011;44029;52.956;4.772;2023-09-19T14:48:35;33.45;;;5.25;;
55489;SDS011;44029;52.956;4.772;2023-09-19T14:51:06;34.03;;;6.53;;
55489;SDS011;44029;52.956;4.772;2023-09-19T14:53:34;27.80;;;5.40;;
55489;SDS011;44029;52.956;4.772;2023-09-19T14:56:07;34.92;;;5.88;;
55489;SDS011;44029;52.956;4.772;2023-09-19T14:58:33;25.83;;;4.80;;
55489;SDS011;44029;52.956;4.772;2023-09-19T15:01:06;28.20;;;6.18;;
55489;SDS011;44029;52.956;4.772;2023-09-19T15:03:33;24.23;;;4.55;;
55489;SDS011;44029;52.956;4.772;2023-09-19T15:06:00;31.73;;;8.50;;
55489;SDS011;44029;52.956;4.772;2023-09-19T15:08:26;34.00;;;5.60;;
55489;SDS011;44029;52.956;4.772;2023-09-19T15:10:52;23.90;;;5.22;;
55489;SDS011;44029;52.956;4.772;2023-09-19T15:13:18;30.75;;;5.47;;
55489;SDS011;44029;52.956;4.772;2023-09-19T15:15:43;21.08;;;5.15;;
55489;SDS011;44029;52.956;4.772;2023-09-19T15:18:12;35.08;;;6.25;;
55489;SDS011;44029;52.956;4.772;2023-09-19T15:20:42;24.73;;;6.40;;
55489;SDS011;44029;52.956;4.772;2023-09-19T15:23:08;39.95;;;5.10;;
55489;SDS011;44029;52.956;4.772;2023-09-19T15:25:34;34.88;;;5.53;;
55489;SDS011;44029;52.956;4.772;2023-09-19T15:28:00;27.85;;;5.55;;
55489;SDS011;44029;52.956;4.772;2023-09-19T15:30:36;26.42;;;5.75;;
55489;SDS011;44029;52.956;4.772;2023-09-19T15:33:04;18.80;;;3.90;;
55489;SDS011;44029;52.956;4.772;2023-09-19T15:35:29;20.85;;;4.90;;
55489;SDS011;44029;52.956;4.772;2023-09-19T15:37:54;30.60;;;6.32;;
55489;SDS011;44029;52.956;4.772;2023-09-19T15:40:21;23.98;;;5.93;;
55489;SDS011;44029;52.956;4.772;2023-09-19T15:42:48;26.33;;;5.88;;
55489;SDS011;44029;52.956;4.772;2023-09-19T15:45:14;30.05;;;6.05;;
55489;SDS011;44029;52.956;4.772;2023-09-19T15:47:41;38.28;;;6.50;;
55489;SDS011;44029;52.956;4.772;2023-09-19T15:50:07;35.55;;;6.78;;
55489;SDS011;44029;52.956;4.772;2023-09-19T15:52:35;31.33;;;4.85;;